createdAt,value
2023-01-27T00:01:08.631Z,2.08
2023-01-27T00:03:35.859Z,0.30
2023-01-27T00:06:07.433Z,0.30
2023-01-27T00:08:44.419Z,0.20
2023-01-27T00:11:11.721Z,0.30
2023-01-27T00:13:40.713Z,0.50
2023-01-27T00:16:09.543Z,1.00
2023-01-27T00:18:48.232Z,0.20
2023-01-27T00:21:18.269Z,0.50
2023-01-27T00:23:46.898Z,0.10
2023-01-27T00:26:21.961Z,0.30
2023-01-27T00:28:51.339Z,0.30
2023-01-27T00:31:26.037Z,0.40
2023-01-27T00:33:58.643Z,0.50
2023-01-27T00:36:25.676Z,1.25
2023-01-27T00:38:55.124Z,0.30
2023-01-27T00:41:22.308Z,6.65
2023-01-27T00:43:52.759Z,0.38
2023-01-27T00:46:27.171Z,2.05
2023-01-27T00:48:54.536Z,0.20
2023-01-27T00:51:24.777Z,0.20
2023-01-27T00:53:51.965Z,0.65
2023-01-27T00:56:20.685Z,0.93
2023-01-27T00:58:49.556Z,1.35
2023-01-27T01:01:17.553Z,0.70
2023-01-27T01:03:50.583Z,0.10
2023-01-27T01:06:21.028Z,0.30
2023-01-27T01:08:56.307Z,0.20
2023-01-27T01:11:23.936Z,1.30
2023-01-27T01:13:51.086Z,0.30
2023-01-27T01:16:22.809Z,0.30
2023-01-27T01:18:50.545Z,0.43
2023-01-27T01:21:17.734Z,0.88
2023-01-27T01:23:48.002Z,0.70
2023-01-27T01:26:16.644Z,0.52
2023-01-27T01:28:45.359Z,0.35
2023-01-27T01:31:16.466Z,0.30
2023-01-27T01:33:43.676Z,0.77
2023-01-27T01:36:13.466Z,0.30
2023-01-27T01:38:41.084Z,0.30
2023-01-27T01:41:12.256Z,0.40
2023-01-27T01:43:39.339Z,0.20
2023-01-27T01:46:10.031Z,0.30
2023-01-27T01:48:45.518Z,0.20
2023-01-27T01:51:20.968Z,0.55
2023-01-27T01:54:07.782Z,0.20
2023-01-27T01:56:49.562Z,0.40
2023-01-27T01:59:21.935Z,0.20
2023-01-27T02:01:55.323Z,0.20
2023-01-27T02:04:26.836Z,0.20
2023-01-27T02:09:29.366Z,0.20
2023-01-27T02:11:58.471Z,1.27
2023-01-27T02:14:25.930Z,0.20
2023-01-27T02:16:53.406Z,1.25
2023-01-27T02:19:39.391Z,0.20
2023-01-27T02:22:09.140Z,0.30
2023-01-27T02:24:46.851Z,0.20
2023-01-27T02:27:14.894Z,0.40
2023-01-27T02:29:42.093Z,0.40
2023-01-27T02:32:21.248Z,0.20
2023-01-27T02:34:48.323Z,1.05
2023-01-27T02:37:15.538Z,0.30
2023-01-27T02:39:44.377Z,0.30
2023-01-27T02:42:16.008Z,0.57
2023-01-27T02:44:45.248Z,0.38
2023-01-27T02:47:12.383Z,1.83
2023-01-27T02:49:42.352Z,0.30
2023-01-27T02:52:12.471Z,0.20
2023-01-27T02:54:43.400Z,0.22
2023-01-27T02:57:10.463Z,1.95
2023-01-27T02:59:38.426Z,0.63
2023-01-27T03:02:05.516Z,0.82
2023-01-27T03:04:32.799Z,1.83
2023-01-27T03:06:59.893Z,0.20
2023-01-27T03:09:27.086Z,0.20
2023-01-27T03:11:54.711Z,1.85
2023-01-27T03:14:24.138Z,0.60
2023-01-27T03:16:54.003Z,0.80
2023-01-27T03:19:23.547Z,1.42
2023-01-27T03:21:50.647Z,0.20
2023-01-27T03:24:19.566Z,1.10
2023-01-27T03:26:50.576Z,0.10
2023-01-27T03:29:20.338Z,0.25
2023-01-27T03:31:47.668Z,0.85
2023-01-27T03:34:15.016Z,0.52
2023-01-27T03:36:42.314Z,0.20
2023-01-27T03:39:09.612Z,0.63
2023-01-27T03:41:39.192Z,0.13
2023-01-27T03:44:06.267Z,0.32
2023-01-27T03:46:39.212Z,0.50
2023-01-27T03:49:06.486Z,0.20
2023-01-27T03:51:33.657Z,0.68
2023-01-27T03:54:03.151Z,0.20
2023-01-27T03:56:30.750Z,0.20
2023-01-27T03:58:57.895Z,0.52
2023-01-27T04:01:27.458Z,0.25
2023-01-27T04:03:55.637Z,0.20
2023-01-27T04:06:26.270Z,0.77
2023-01-27T04:08:53.708Z,0.90
2023-01-27T04:11:20.838Z,0.32
2023-01-27T04:13:52.318Z,0.90
2023-01-27T04:16:19.840Z,0.20
2023-01-27T04:18:48.619Z,1.00
2023-01-27T04:21:16.871Z,0.52
2023-01-27T04:23:43.949Z,0.60
2023-01-27T04:26:11.120Z,0.63
2023-01-27T04:28:44.190Z,0.15
2023-01-27T04:31:12.098Z,0.20
2023-01-27T04:33:39.336Z,0.20
2023-01-27T04:36:06.589Z,0.28
2023-01-27T04:38:34.064Z,0.43
2023-01-27T04:41:01.289Z,0.30
2023-01-27T04:43:28.426Z,0.13
2023-01-27T04:45:55.719Z,0.47
2023-01-27T04:48:22.968Z,0.10
2023-01-27T04:50:52.931Z,0.85
2023-01-27T04:53:20.070Z,0.20
2023-01-27T04:55:49.559Z,0.22
2023-01-27T04:58:17.655Z,0.10
2023-01-27T05:00:51.208Z,0.10
2023-01-27T05:03:19.452Z,0.10
2023-01-27T05:05:53.775Z,0.20
2023-01-27T05:08:23.840Z,0.85
2023-01-27T05:10:53.391Z,0.20
2023-01-27T05:13:21.378Z,0.50
2023-01-27T05:15:50.028Z,1.20
2023-01-27T05:18:17.667Z,0.57
2023-01-27T05:20:44.823Z,0.47
2023-01-27T05:23:23.018Z,0.30
2023-01-27T05:25:51.305Z,0.13
2023-01-27T05:28:18.608Z,0.20
2023-01-27T05:30:45.696Z,0.80
2023-01-27T05:33:12.857Z,1.23
2023-01-27T05:35:44.508Z,0.50
2023-01-27T05:40:38.604Z,0.20
2023-01-27T05:43:05.730Z,0.20
2023-01-27T05:45:32.805Z,0.20
2023-01-27T05:48:00.116Z,0.20
2023-01-27T05:50:31.522Z,0.20
2023-01-27T05:53:02.017Z,0.52
2023-01-27T05:55:32.655Z,0.20
2023-01-27T05:58:00.258Z,0.10
2023-01-27T06:00:29.727Z,0.50
2023-01-27T06:02:59.999Z,0.20
2023-01-27T06:05:29.483Z,0.20
2023-01-27T06:07:59.674Z,0.20
2023-01-27T06:10:31.352Z,0.20
2023-01-27T06:15:29.017Z,0.20
2023-01-27T06:17:59.151Z,0.20
2023-01-27T06:20:40.343Z,0.10
2023-01-27T06:23:12.391Z,1.95
2023-01-27T06:25:44.184Z,0.20
2023-01-27T06:28:19.857Z,0.20
2023-01-27T06:31:12.272Z,0.35
2023-01-27T06:33:39.656Z,0.20
2023-01-27T06:36:12.421Z,0.85
2023-01-27T06:38:39.760Z,1.10
2023-01-27T06:41:07.282Z,0.20
2023-01-27T06:43:42.848Z,0.20
2023-01-27T06:46:21.018Z,0.20
2023-01-27T06:48:50.087Z,1.80
2023-01-27T06:51:17.267Z,0.20
2023-01-27T06:53:51.450Z,0.20
2023-01-27T06:56:21.719Z,0.15
2023-01-27T06:58:52.177Z,0.20
2023-01-27T07:01:19.287Z,0.30
2023-01-27T07:03:46.451Z,0.68
2023-01-27T07:06:13.592Z,0.60
2023-01-27T07:08:40.832Z,0.30
2023-01-27T07:11:09.158Z,0.50
2023-01-27T07:13:43.002Z,0.20
2023-01-27T07:16:10.143Z,0.20
2023-01-27T07:18:37.274Z,0.30
2023-01-27T07:21:05.416Z,0.20
2023-01-27T07:23:35.317Z,0.20
2023-01-27T07:26:09.818Z,1.55
2023-01-27T07:28:41.620Z,0.30
2023-01-27T07:31:09.115Z,0.20
2023-01-27T07:33:36.259Z,0.10
2023-01-27T07:36:03.477Z,0.22
2023-01-27T07:38:33.696Z,0.82
2023-01-27T07:41:07.249Z,0.30
2023-01-27T07:43:42.330Z,0.32
2023-01-27T07:46:09.689Z,0.55
2023-01-27T07:48:36.863Z,0.20
2023-01-27T07:51:03.944Z,0.40
2023-01-27T07:53:32.952Z,0.10
2023-01-27T07:56:00.271Z,0.20
2023-01-27T07:58:29.798Z,0.20
2023-01-27T08:00:57.034Z,0.32
2023-01-27T08:03:37.942Z,0.20
2023-01-27T08:06:06.946Z,0.20
2023-01-27T08:08:38.172Z,0.20
2023-01-27T08:11:08.275Z,1.35
2023-01-27T08:13:43.308Z,0.20
2023-01-27T08:16:14.513Z,0.20
2023-01-27T08:18:42.096Z,0.20
2023-01-27T08:21:15.647Z,0.20
2023-01-27T08:23:44.710Z,0.20
2023-01-27T08:26:11.888Z,0.28
2023-01-27T08:28:40.097Z,0.40
2023-01-27T08:31:09.917Z,0.30
2023-01-27T08:33:37.828Z,0.55
2023-01-27T08:36:07.755Z,1.10
2023-01-27T08:38:36.115Z,0.68
2023-01-27T08:41:05.632Z,0.20
2023-01-27T08:43:33.360Z,0.20
2023-01-27T08:46:00.876Z,0.43
2023-01-27T08:48:29.092Z,0.55
2023-01-27T08:50:56.365Z,2.75
2023-01-27T08:53:30.154Z,0.10
2023-01-27T08:56:06.068Z,0.20
2023-01-27T08:58:34.044Z,0.40
2023-01-27T09:01:06.343Z,0.45
2023-01-27T09:03:35.899Z,0.20
2023-01-27T09:06:09.407Z,0.20
2023-01-27T09:08:36.891Z,0.20
2023-01-27T09:11:16.764Z,0.57
2023-01-27T09:13:44.160Z,0.70
2023-01-27T09:16:14.051Z,0.20
2023-01-27T09:18:41.113Z,0.28
2023-01-27T09:21:16.943Z,0.43
2023-01-27T09:23:44.143Z,0.20
2023-01-27T09:26:12.499Z,0.20
2023-01-27T09:28:42.862Z,1.20
2023-01-27T09:31:10.088Z,0.20
2023-01-27T09:33:41.880Z,0.20
2023-01-27T09:36:12.923Z,0.73
2023-01-27T09:38:57.955Z,1.55
2023-01-27T09:42:07.686Z,0.80
2023-01-27T09:45:00.803Z,1.02
2023-01-27T09:47:55.648Z,0.28
2023-01-27T09:50:25.845Z,0.22
2023-01-27T09:53:13.244Z,1.13
2023-01-27T09:56:04.041Z,0.65
2023-01-27T09:58:34.197Z,0.30
2023-01-27T10:01:17.592Z,1.05
2023-01-27T10:03:55.074Z,0.30
2023-01-27T10:06:43.932Z,0.52
2023-01-27T10:09:22.698Z,1.45
2023-01-27T10:12:05.808Z,1.85
2023-01-27T10:14:48.134Z,2.33
2023-01-27T10:17:26.860Z,2.08
2023-01-27T10:20:17.161Z,0.98
2023-01-27T10:23:06.408Z,0.43
2023-01-27T10:26:13.523Z,0.40
2023-01-27T10:28:49.961Z,1.40
2023-01-27T10:31:35.848Z,1.23
2023-01-27T10:34:39.684Z,1.85
2023-01-27T10:37:19.885Z,1.65
2023-01-27T10:39:54.433Z,0.68
2023-01-27T10:42:44.022Z,0.40
2023-01-27T10:45:23.080Z,1.25
2023-01-27T10:48:16.684Z,1.67
2023-01-27T10:50:50.803Z,1.10
2023-01-27T10:53:44.565Z,1.02
2023-01-27T10:56:34.841Z,1.05
2023-01-27T10:59:02.890Z,0.50
2023-01-27T11:01:55.177Z,0.50
2023-01-27T11:04:35.022Z,1.02
2023-01-27T11:07:05.250Z,2.00
2023-01-27T11:09:39.685Z,0.47
2023-01-27T11:12:13.250Z,0.20
2023-01-27T11:14:52.169Z,0.28
2023-01-27T11:17:42.608Z,3.03
2023-01-27T11:20:31.873Z,0.85
2023-01-27T11:23:20.724Z,0.30
2023-01-27T11:26:11.384Z,0.68
2023-01-27T11:28:57.132Z,0.63
2023-01-27T11:31:51.956Z,0.82
2023-01-27T11:34:33.393Z,1.83
2023-01-27T11:37:22.133Z,1.63
2023-01-27T11:39:49.414Z,2.25
2023-01-27T11:42:17.821Z,1.13
2023-01-27T11:44:45.893Z,0.88
2023-01-27T11:47:24.930Z,1.13
2023-01-27T11:49:54.285Z,1.52
2023-01-27T11:52:29.160Z,1.63
2023-01-27T11:55:21.783Z,0.93
2023-01-27T11:57:57.527Z,1.35
2023-01-27T12:00:42.541Z,0.40
2023-01-27T12:03:55.394Z,1.80
2023-01-27T12:06:35.013Z,0.68
2023-01-27T12:09:02.277Z,0.30
2023-01-27T12:11:31.781Z,1.50
2023-01-27T12:14:13.211Z,4.45
2023-01-27T12:16:53.019Z,0.73
2023-01-27T12:19:31.450Z,0.57
2023-01-27T12:22:05.514Z,1.08
2023-01-27T12:24:36.189Z,3.22
2023-01-27T12:27:05.343Z,1.60
2023-01-27T12:29:55.977Z,2.38
2023-01-27T12:32:43.123Z,3.17
2023-01-27T12:35:34.466Z,2.10
2023-01-27T12:38:12.822Z,3.90
2023-01-27T12:40:50.937Z,3.25
2023-01-27T12:43:19.634Z,1.75
2023-01-27T12:46:10.952Z,3.97
2023-01-27T12:48:54.154Z,2.80
2023-01-27T12:51:28.836Z,0.77
2023-01-27T12:54:29.449Z,1.98
2023-01-27T12:57:05.731Z,3.83
2023-01-27T12:59:33.930Z,1.80
2023-01-27T13:02:17.221Z,3.55
2023-01-27T13:04:53.585Z,0.85
2023-01-27T13:07:29.807Z,2.05
2023-01-27T13:10:15.755Z,3.90
2023-01-27T13:12:58.027Z,1.52
2023-01-27T13:15:31.340Z,2.13
2023-01-27T13:18:03.779Z,4.00
2023-01-27T13:20:48.549Z,5.38
2023-01-27T13:23:20.957Z,2.28
2023-01-27T13:26:06.817Z,2.17
2023-01-27T13:28:53.692Z,2.65
2023-01-27T13:31:29.832Z,2.78
2023-01-27T13:34:07.107Z,2.72
2023-01-27T13:36:42.093Z,4.00
2023-01-27T13:39:34.069Z,2.28
2023-01-27T13:42:04.285Z,0.80
2023-01-27T13:44:44.718Z,0.65
2023-01-27T13:47:33.457Z,1.35
2023-01-27T13:50:39.187Z,2.20
2023-01-27T13:53:18.309Z,0.80
2023-01-27T13:56:10.131Z,4.60
2023-01-27T13:58:52.911Z,2.63
2023-01-27T14:01:57.512Z,3.75
2023-01-27T14:04:53.991Z,0.70
2023-01-27T14:07:59.136Z,2.70
2023-01-27T14:10:42.000Z,1.33
2023-01-27T14:13:52.420Z,2.22
2023-01-27T14:16:40.682Z,1.17
2023-01-27T14:19:31.604Z,3.00
2023-01-27T14:22:23.901Z,3.45
2023-01-27T14:25:04.027Z,2.83
2023-01-27T14:27:44.762Z,0.47
2023-01-27T14:30:35.677Z,1.23
2023-01-27T14:33:24.527Z,1.17
2023-01-27T14:36:20.768Z,2.28
2023-01-27T14:39:19.165Z,2.08
2023-01-27T14:41:59.134Z,2.50
2023-01-27T14:44:43.946Z,1.52
2023-01-27T14:47:32.406Z,1.67
2023-01-27T14:50:02.400Z,2.13
2023-01-27T14:52:52.603Z,1.27
2023-01-27T14:56:14.337Z,1.63
2023-01-27T14:59:00.004Z,2.28
2023-01-27T15:01:41.819Z,1.15
2023-01-27T15:04:39.031Z,3.30
2023-01-27T15:07:19.589Z,2.42
2023-01-27T15:09:53.511Z,3.22
2023-01-27T15:12:43.556Z,4.72
2023-01-27T15:15:10.768Z,1.80
2023-01-27T15:18:19.660Z,3.92
2023-01-27T15:21:00.967Z,0.98
2023-01-27T15:23:46.224Z,1.27
2023-01-27T15:26:31.946Z,3.38
2023-01-27T15:29:03.365Z,3.63
2023-01-27T15:31:33.602Z,3.17
2023-01-27T15:34:06.217Z,6.22
2023-01-27T15:36:40.148Z,4.13
2023-01-27T15:39:11.383Z,2.53
2023-01-27T15:41:54.172Z,4.22
2023-01-27T15:44:26.167Z,3.35
2023-01-27T15:47:02.756Z,4.70
2023-01-27T15:50:23.570Z,2.10
2023-01-27T15:53:02.471Z,1.45
2023-01-27T15:55:38.422Z,2.90
2023-01-27T15:58:28.403Z,1.67
2023-01-27T16:01:08.759Z,2.10
2023-01-27T16:03:41.137Z,1.73
2023-01-27T16:06:12.926Z,2.60
2023-01-27T16:08:53.100Z,2.42
2023-01-27T16:11:30.470Z,0.85
2023-01-27T16:14:14.996Z,1.25
2023-01-27T16:16:54.406Z,0.82
2023-01-27T16:19:33.000Z,2.13
2023-01-27T16:22:10.840Z,0.98
2023-01-27T16:24:52.585Z,2.53
2023-01-27T16:30:08.126Z,1.77
2023-01-27T16:32:48.301Z,1.50
2023-01-27T16:35:19.923Z,2.85
2023-01-27T16:38:15.162Z,2.60
2023-01-27T16:40:58.722Z,0.75
2023-01-27T16:43:32.809Z,1.80
2023-01-27T16:46:01.433Z,3.13
2023-01-27T16:48:42.867Z,2.75
2023-01-27T16:51:22.371Z,0.52
2023-01-27T16:53:54.924Z,1.20
2023-01-27T16:56:32.333Z,1.52
2023-01-27T16:59:06.018Z,3.25
2023-01-27T17:01:59.281Z,1.17
2023-01-27T17:04:28.676Z,1.75
2023-01-27T17:07:14.120Z,1.20
2023-01-27T17:09:45.430Z,0.73
2023-01-27T17:12:40.996Z,1.05
2023-01-27T17:15:28.361Z,0.73
2023-01-27T17:17:57.057Z,1.75
2023-01-27T17:20:34.422Z,1.83
2023-01-27T17:23:04.358Z,1.98
2023-01-27T17:25:39.940Z,6.65
2023-01-27T17:28:11.779Z,2.92
2023-01-27T17:30:41.543Z,3.20
2023-01-27T17:33:33.942Z,5.47
2023-01-27T17:36:21.928Z,1.17
2023-01-27T17:38:55.709Z,2.25
2023-01-27T17:41:35.497Z,4.50
2023-01-27T17:44:13.344Z,4.72
2023-01-27T17:46:43.257Z,4.25
2023-01-27T17:49:18.313Z,5.22
2023-01-27T17:51:48.491Z,2.15
2023-01-27T17:54:28.521Z,6.63
2023-01-27T17:57:23.780Z,6.57
2023-01-27T18:02:58.658Z,3.25
2023-01-27T18:05:30.611Z,7.88
2023-01-27T18:07:58.320Z,2.95
2023-01-27T18:10:34.619Z,1.70
2023-01-27T18:13:24.887Z,1.85
2023-01-27T18:16:03.728Z,2.40
2023-01-27T18:18:33.715Z,1.92
2023-01-27T18:21:01.367Z,3.10
2023-01-27T18:23:35.445Z,3.35
2023-01-27T18:26:26.403Z,1.88
2023-01-27T18:29:28.341Z,2.33
2023-01-27T18:32:00.644Z,1.92
2023-01-27T18:34:30.001Z,1.30
2023-01-27T18:36:59.547Z,1.85
2023-01-27T18:39:36.820Z,1.42
2023-01-27T18:42:12.860Z,0.93
2023-01-27T18:44:39.971Z,2.95
2023-01-27T18:47:20.207Z,0.52
2023-01-27T18:50:03.126Z,4.43
2023-01-27T18:52:32.789Z,2.05
2023-01-27T18:55:22.914Z,3.53
2023-01-27T18:58:00.621Z,3.65
2023-01-27T19:00:42.925Z,1.15
2023-01-27T19:03:18.483Z,2.75
2023-01-27T19:05:54.539Z,1.38
2023-01-27T19:08:26.905Z,1.45
2023-01-27T19:10:54.127Z,4.68
2023-01-27T19:13:23.713Z,3.28
2023-01-27T19:15:56.788Z,3.15
2023-01-27T19:18:39.974Z,3.35
2023-01-27T19:21:08.977Z,3.75
2023-01-27T19:23:41.196Z,3.28
2023-01-27T19:26:17.929Z,2.17
2023-01-27T19:28:57.044Z,1.35
2023-01-27T19:31:24.484Z,1.70
2023-01-27T19:33:52.810Z,3.28
2023-01-27T19:36:31.696Z,2.30
2023-01-27T19:39:13.723Z,2.65
2023-01-27T19:41:41.921Z,1.45
2023-01-27T19:44:09.275Z,3.47
2023-01-27T19:46:38.064Z,2.95
2023-01-27T19:49:05.421Z,3.78
2023-01-27T19:51:33.234Z,4.60
2023-01-27T19:54:00.622Z,2.65
2023-01-27T19:56:30.812Z,3.50
2023-01-27T19:58:59.276Z,1.15
2023-01-27T20:01:26.592Z,1.08
2023-01-27T20:03:54.913Z,3.03
2023-01-27T20:06:24.697Z,3.80
2023-01-27T20:08:53.854Z,2.22
2023-01-27T20:11:34.208Z,2.47
2023-01-27T20:14:04.711Z,5.13
2023-01-27T20:16:32.972Z,3.53
2023-01-27T20:19:00.288Z,3.53
2023-01-27T20:21:30.826Z,3.30
2023-01-27T20:23:58.122Z,5.30
2023-01-27T20:26:25.562Z,4.75
2023-01-27T20:28:52.889Z,5.35
2023-01-27T20:31:21.623Z,5.10
2023-01-27T20:33:49.274Z,5.70
2023-01-27T20:36:20.390Z,5.20
2023-01-27T20:38:51.228Z,9.13
2023-01-27T20:41:23.321Z,4.97
2023-01-27T20:43:59.650Z,5.38
2023-01-27T20:46:30.042Z,4.03
2023-01-27T20:49:00.863Z,5.63
2023-01-27T20:51:28.111Z,2.10
2023-01-27T20:53:55.502Z,5.13
2023-01-27T20:56:29.236Z,5.95
2023-01-27T20:58:56.796Z,1.50
2023-01-27T21:01:24.192Z,3.13
2023-01-27T21:03:51.536Z,4.25
2023-01-27T21:06:19.396Z,4.47
2023-01-27T21:08:46.713Z,5.47
2023-01-27T21:11:14.240Z,5.32
2023-01-27T21:13:41.762Z,6.38
2023-01-27T21:16:09.248Z,3.55
2023-01-27T21:18:36.978Z,5.05
2023-01-27T21:21:04.676Z,6.57
2023-01-27T21:23:34.779Z,6.30
2023-01-27T21:26:09.443Z,5.60
2023-01-27T21:28:36.671Z,7.00
2023-01-27T21:31:11.831Z,3.70
2023-01-27T21:33:41.448Z,7.88
2023-01-27T21:36:10.752Z,4.78
2023-01-27T21:38:39.112Z,3.58
2023-01-27T21:41:18.298Z,6.47
2023-01-27T21:43:45.701Z,3.25
2023-01-27T21:46:13.027Z,1.65
2023-01-27T21:48:42.646Z,2.97
2023-01-27T21:51:09.909Z,1.08
2023-01-27T21:53:37.094Z,4.97
2023-01-27T21:56:05.855Z,2.00
2023-01-27T21:58:33.264Z,2.53
2023-01-27T22:01:10.747Z,2.38
2023-01-27T22:03:38.466Z,2.95
2023-01-27T22:06:09.801Z,2.22
2023-01-27T22:08:37.000Z,6.18
2023-01-27T22:11:04.957Z,1.90
2023-01-27T22:13:33.712Z,2.28
2023-01-27T22:16:01.797Z,2.80
2023-01-27T22:18:35.828Z,2.75
2023-01-27T22:21:05.127Z,1.77
2023-01-27T22:23:33.782Z,2.88
2023-01-27T22:26:10.025Z,3.03
2023-01-27T22:28:37.109Z,2.22
2023-01-27T22:31:07.512Z,4.05
2023-01-27T22:33:42.920Z,4.55
2023-01-27T22:36:12.409Z,3.97
2023-01-27T22:38:39.481Z,3.40
2023-01-27T22:41:06.568Z,2.13
2023-01-27T22:43:35.100Z,3.25
2023-01-27T22:46:03.441Z,0.85
2023-01-27T22:48:39.884Z,2.28
2023-01-27T22:51:06.978Z,2.63
2023-01-27T22:53:34.900Z,2.30
2023-01-27T22:56:04.125Z,0.68
2023-01-27T22:58:31.657Z,3.35
2023-01-27T23:01:06.171Z,3.33
2023-01-27T23:03:36.361Z,2.97
2023-01-27T23:06:07.623Z,1.35
2023-01-27T23:08:35.628Z,2.05
2023-01-27T23:11:04.524Z,1.42
2023-01-27T23:13:33.283Z,1.60
2023-01-27T23:16:00.570Z,3.83
2023-01-27T23:18:32.067Z,3.70
2023-01-27T23:23:30.290Z,0.47
2023-01-27T23:26:07.208Z,0.68
2023-01-27T23:28:36.678Z,0.45
2023-01-27T23:31:07.585Z,1.90
2023-01-27T23:33:37.013Z,0.95
2023-01-27T23:36:05.865Z,2.55
2023-01-27T23:38:33.936Z,0.88
2023-01-27T23:41:06.859Z,2.78
2023-01-27T23:43:36.220Z,1.73
2023-01-27T23:46:06.538Z,2.85
2023-01-27T23:48:33.652Z,2.85
2023-01-27T23:51:09.801Z,3.20
2023-01-27T23:53:36.985Z,1.95
2023-01-27T23:56:17.294Z,1.25
2023-01-27T23:58:47.152Z,3.50
